Time;durP1;ratioP1;P1;durP2;ratioP2;P2;SDS_P1;SDS_P2;PMS_P1;PMS_P2;Temp;Humidity;BMP_temperature;BMP_pressure;BME280_temperature;BME280_humidity;BME280_pressure;Samples;Min_cycle;Max_cycle;Signal;HPM_P1;HPM_P2
2023/03/24 00:00:59;;;;;;;11.88;7.00;;;11.60;99.90;;;;;;5041232;28;20044;-76
2023/03/24 00:03:26;;;;;;;14.13;7.38;;;11.60;99.90;;;;;;5012896;28;20133;-75
2023/03/24 00:06:03;;;;;;;14.73;8.48;;;11.60;99.90;;;;;;5044648;28;20049;-70
2023/03/24 00:08:34;;;;;;;14.82;7.95;;;11.50;99.90;;;;;;5028770;28;20473;-69
2023/03/24 00:11:05;;;;;;;13.32;8.00;;;11.50;99.90;;;;;;5009364;28;20127;-70
2023/03/24 00:13:37;;;;;;;11.48;7.80;;;11.50;99.90;;;;;;5021839;28;20040;-69
2023/03/24 00:16:08;;;;;;;14.30;8.32;;;11.50;99.90;;;;;;5056775;28;20095;-69
2023/03/24 00:18:35;;;;;;;12.85;7.72;;;11.50;99.90;;;;;;5042334;28;20051;-69
2023/03/24 00:21:10;;;;;;;13.43;8.95;;;11.50;99.90;;;;;;5057931;28;20037;-69
2023/03/24 00:23:36;;;;;;;12.73;8.30;;;11.50;99.90;;;;;;5039487;28;20049;-69
2023/03/24 00:26:14;;;;;;;13.73;8.30;;;11.50;99.90;;;;;;5012815;28;20047;-69
2023/03/24 00:28:45;;;;;;;13.18;7.97;;;11.50;99.90;;;;;;5026731;28;21333;-70
2023/03/24 00:31:14;;;;;;;11.57;8.38;;;11.50;99.90;;;;;;5021017;28;20085;-71
2023/03/24 00:33:49;;;;;;;12.52;7.80;;;11.50;99.90;;;;;;5029315;28;20502;-69
2023/03/24 00:36:17;;;;;;;12.70;7.38;;;11.50;99.90;;;;;;5043050;28;20056;-69
2023/03/24 00:38:43;;;;;;;14.30;8.07;;;11.50;99.90;;;;;;5038605;28;20049;-69
2023/03/24 00:41:09;;;;;;;12.65;7.30;;;11.50;99.90;;;;;;5038791;28;20036;-69
2023/03/24 00:43:35;;;;;;;14.05;8.30;;;11.50;99.90;;;;;;5022290;28;20766;-69
2023/03/24 00:46:04;;;;;;;10.80;7.50;;;11.50;99.90;;;;;;5021635;28;20530;-70
2023/03/24 00:48:31;;;;;;;12.43;8.00;;;11.50;99.90;;;;;;5021144;28;20079;-70
2023/03/24 00:51:00;;;;;;;10.27;7.85;;;11.50;99.90;;;;;;5024910;28;20040;-69
2023/03/24 00:53:28;;;;;;;11.90;7.80;;;11.50;99.90;;;;;;5040913;28;20049;-69
2023/03/24 00:55:55;;;;;;;12.85;7.80;;;11.50;99.90;;;;;;5022766;28;20150;-70
2023/03/24 00:58:21;;;;;;;12.05;7.70;;;11.50;99.90;;;;;;5020464;28;20496;-70
2023/03/24 01:00:55;;;;;;;11.27;8.38;;;11.50;99.90;;;;;;5023606;28;20053;-69
2023/03/24 01:03:25;;;;;;;13.55;7.78;;;11.50;99.90;;;;;;5044428;28;20490;-70
2023/03/24 01:06:00;;;;;;;10.35;7.15;;;11.50;99.90;;;;;;5040661;28;20052;-70
2023/03/24 01:08:27;;;;;;;14.70;8.15;;;11.40;99.90;;;;;;5037926;28;20083;-69
2023/03/24 01:10:53;;;;;;;14.32;8.27;;;11.50;99.90;;;;;;5037607;28;20053;-69
2023/03/24 01:13:22;;;;;;;13.02;8.18;;;11.50;99.90;;;;;;5037566;28;20048;-69
2023/03/24 01:15:48;;;;;;;11.90;8.15;;;11.50;99.90;;;;;;5041979;28;20048;-69
2023/03/24 01:18:15;;;;;;;11.93;7.35;;;11.50;99.90;;;;;;5014393;28;20725;-70
2023/03/24 01:20:47;;;;;;;14.02;8.18;;;11.50;99.90;;;;;;5020080;28;20044;-69
2023/03/24 01:23:16;;;;;;;11.32;7.47;;;11.50;99.90;;;;;;5019056;28;20080;-70
2023/03/24 01:25:44;;;;;;;12.52;7.97;;;11.50;99.90;;;;;;5035297;28;20541;-70
2023/03/24 01:28:16;;;;;;;11.05;7.13;;;11.50;99.90;;;;;;5040353;28;20052;-70
2023/03/24 01:30:42;;;;;;;11.30;7.78;;;11.50;99.90;;;;;;5036153;28;20063;-70
2023/03/24 01:33:09;;;;;;;11.30;7.85;;;11.50;99.90;;;;;;5006833;28;20037;-70
2023/03/24 01:35:35;;;;;;;11.95;7.55;;;11.50;99.90;;;;;;5023502;28;20052;-70
2023/03/24 01:38:05;;;;;;;10.65;7.20;;;11.50;99.90;;;;;;5038959;28;20051;-69
2023/03/24 01:40:32;;;;;;;11.18;7.78;;;11.50;99.90;;;;;;5037301;28;20142;-70
2023/03/24 01:43:00;;;;;;;10.70;7.55;;;11.50;99.90;;;;;;5041378;28;20079;-69
2023/03/24 01:45:38;;;;;;;11.75;8.27;;;11.50;99.90;;;;;;5037279;28;20044;-70
2023/03/24 01:48:12;;;;;;;12.02;8.40;;;11.50;99.90;;;;;;5018153;28;20045;-69
2023/03/24 01:50:39;;;;;;;10.57;7.53;;;11.50;99.90;;;;;;5007825;28;20139;-69
2023/03/24 01:53:06;;;;;;;9.85;8.23;;;11.50;99.90;;;;;;5000442;28;20156;-70
2023/03/24 01:55:32;;;;;;;10.70;7.75;;;11.50;99.90;;;;;;4984752;28;20053;-70
2023/03/24 01:58:02;;;;;;;11.65;9.55;;;11.50;99.90;;;;;;4970186;28;20163;-70
2023/03/24 02:00:30;;;;;;;11.52;7.57;;;11.60;99.90;;;;;;5002166;28;21055;-70
2023/03/24 02:03:02;;;;;;;9.18;6.50;;;11.50;99.90;;;;;;4983088;28;20058;-69
2023/03/24 02:05:31;;;;;;;10.63;7.35;;;11.50;99.90;;;;;;5002540;28;20061;-69
2023/03/24 02:08:21;;;;;;;8.75;6.75;;;11.50;99.90;;;;;;4983889;28;20071;-70
2023/03/24 02:10:48;;;;;;;8.68;6.68;;;11.60;99.90;;;;;;5001265;28;20068;-71
2023/03/24 02:13:14;;;;;;;9.40;6.65;;;11.60;99.90;;;;;;5002625;28;20831;-70
2023/03/24 02:16:00;;;;;;;9.52;6.70;;;11.70;99.90;;;;;;4974925;28;20048;-71
2023/03/24 02:18:34;;;;;;;11.30;7.00;;;11.60;99.90;;;;;;5013131;28;21058;-71
2023/03/24 02:21:31;;;;;;;9.25;6.90;;;11.60;99.90;;;;;;5008216;28;20567;-71
2023/03/24 02:24:25;;;;;;;9.30;7.10;;;11.70;99.90;;;;;;5013110;28;20045;-70
2023/03/24 02:27:30;;;;;;;9.85;7.47;;;11.70;99.90;;;;;;5033661;28;20184;-70
2023/03/24 02:30:18;;;;;;;10.07;7.00;;;11.70;99.90;;;;;;5007475;28;20048;-72
2023/03/24 02:33:12;;;;;;;11.18;7.90;;;11.70;99.90;;;;;;5028292;28;20056;-70
2023/03/24 02:36:14;;;;;;;9.75;7.45;;;11.70;99.90;;;;;;5028553;28;20062;-70
2023/03/24 02:38:48;;;;;;;10.35;7.75;;;11.70;99.90;;;;;;5030141;28;20414;-69
2023/03/24 02:41:57;;;;;;;10.32;7.28;;;11.70;99.90;;;;;;5030289;28;20064;-72
2023/03/24 02:44:56;;;;;;;10.82;7.22;;;11.70;99.90;;;;;;5028730;28;20507;-71
2023/03/24 02:47:41;;;;;;;9.38;7.13;;;11.70;99.90;;;;;;5013077;28;20126;-70
2023/03/24 02:50:17;;;;;;;8.60;7.68;;;11.80;99.90;;;;;;5012033;28;20119;-70
2023/03/24 02:52:49;;;;;;;10.55;7.57;;;11.80;99.90;;;;;;5029103;28;20071;-70
2023/03/24 02:55:30;;;;;;;13.15;7.57;;;11.80;99.90;;;;;;5027999;28;20032;-70
2023/03/24 02:58:02;;;;;;;9.25;7.40;;;11.70;99.90;;;;;;5012252;28;20056;-70
2023/03/24 03:00:35;;;;;;;9.82;7.50;;;11.80;99.90;;;;;;5009281;28;20052;-70
2023/03/24 03:03:15;;;;;;;9.55;7.85;;;11.80;99.90;;;;;;5029598;28;20120;-70
2023/03/24 03:05:53;;;;;;;8.82;7.47;;;11.80;99.90;;;;;;5008810;28;20407;-70
2023/03/24 03:08:21;;;;;;;9.45;7.65;;;11.80;99.90;;;;;;5010243;28;20055;-70
2023/03/24 03:10:49;;;;;;;9.18;7.07;;;11.80;99.90;;;;;;5028486;28;20044;-70
2023/03/24 03:13:26;;;;;;;10.70;8.40;;;11.90;99.90;;;;;;5029594;28;20067;-70
2023/03/24 03:15:55;;;;;;;8.02;7.10;;;11.90;99.90;;;;;;5009142;28;20780;-70
2023/03/24 03:18:48;;;;;;;8.85;7.03;;;11.90;99.90;;;;;;5012715;28;20579;-70
2023/03/24 03:21:16;;;;;;;8.73;6.93;;;11.90;99.90;;;;;;5032543;28;20048;-69
2023/03/24 03:23:50;;;;;;;7.30;6.28;;;11.90;99.90;;;;;;5028625;28;20043;-70
2023/03/24 03:26:23;;;;;;;8.05;7.07;;;11.90;99.90;;;;;;5031795;28;20051;-69
2023/03/24 03:29:00;;;;;;;7.70;6.57;;;12.00;99.90;;;;;;5026612;28;20048;-71
2023/03/24 03:31:52;;;;;;;9.10;6.97;;;12.00;99.90;;;;;;5032740;28;21566;-70
2023/03/24 03:34:41;;;;;;;8.10;6.65;;;12.00;99.90;;;;;;5031610;28;21168;-71
2023/03/24 03:37:25;;;;;;;8.60;6.50;;;12.00;99.90;;;;;;5013423;28;20056;-70
2023/03/24 03:40:03;;;;;;;6.97;5.53;;;12.00;99.90;;;;;;5030856;28;20152;-71
2023/03/24 03:42:29;;;;;;;5.63;4.20;;;12.00;99.90;;;;;;5014418;28;20102;-70
2023/03/24 03:44:55;;;;;;;5.00;3.97;;;12.00;99.90;;;;;;4999560;28;20545;-70
2023/03/24 03:47:21;;;;;;;5.13;3.72;;;12.00;99.90;;;;;;5029190;28;20170;-70
2023/03/24 03:49:49;;;;;;;5.82;4.25;;;11.90;99.90;;;;;;4999891;28;20536;-70
2023/03/24 03:52:16;;;;;;;4.93;3.33;;;11.80;99.90;;;;;;5029270;28;20083;-70
2023/03/24 03:54:43;;;;;;;6.15;3.13;;;11.70;99.90;;;;;;5003204;28;20060;-69
2023/03/24 03:57:11;;;;;;;6.22;2.92;;;11.60;99.90;;;;;;5031431;28;20080;-70
2023/03/24 03:59:38;;;;;;;6.05;3.22;;;11.50;99.90;;;;;;5031269;28;20522;-70
2023/03/24 04:02:32;;;;;;;5.68;3.08;;;11.40;99.90;;;;;;5015359;28;20554;-69
2023/03/24 04:05:00;;;;;;;5.88;2.47;;;11.30;99.90;;;;;;5029780;28;20052;-70
2023/03/24 04:07:36;;;;;;;5.93;2.55;;;11.20;99.90;;;;;;4994908;28;20154;-70
2023/03/24 04:10:29;;;;;;;5.38;2.70;;;11.10;99.90;;;;;;5029998;28;20058;-70
2023/03/24 04:13:06;;;;;;;9.25;3.15;;;11.10;99.90;;;;;;5016568;28;20517;-79
2023/03/24 04:15:45;;;;;;;11.10;3.20;;;11.00;99.90;;;;;;5029224;28;20142;-79
2023/03/24 04:18:32;;;;;;;9.88;3.28;;;10.90;99.90;;;;;;5031859;28;20496;-79
2023/03/24 04:21:05;;;;;;;6.50;2.88;;;10.90;99.90;;;;;;5029846;28;20668;-78
2023/03/24 04:24:02;;;;;;;9.35;3.03;;;10.90;99.90;;;;;;5031786;28;20040;-78
2023/03/24 04:26:41;;;;;;;6.40;2.70;;;10.80;99.90;;;;;;5033174;28;20055;-77
2023/03/24 04:29:10;;;;;;;8.73;3.53;;;10.80;99.90;;;;;;5030901;28;20057;-78
2023/03/24 04:31:52;;;;;;;9.15;2.83;;;10.80;99.90;;;;;;5030783;28;20048;-78
2023/03/24 04:34:28;;;;;;;8.50;2.63;;;10.80;99.90;;;;;;5014952;28;20037;-78
2023/03/24 04:37:14;;;;;;;9.73;2.97;;;10.80;99.90;;;;;;5013571;28;20045;-77
2023/03/24 04:39:44;;;;;;;10.43;2.67;;;10.70;99.90;;;;;;5029648;28;20044;-77
2023/03/24 04:42:36;;;;;;;10.75;2.80;;;10.70;99.90;;;;;;5028619;28;20041;-72
2023/03/24 04:45:04;;;;;;;10.60;2.83;;;10.60;99.90;;;;;;5029076;28;20047;-69
2023/03/24 04:47:52;;;;;;;9.38;2.70;;;10.60;99.90;;;;;;5013004;28;20055;-72
2023/03/24 04:50:38;;;;;;;8.65;2.33;;;10.60;99.90;;;;;;5012431;28;20056;-80
2023/03/24 04:53:07;;;;;;;9.70;2.40;;;10.50;99.90;;;;;;5012765;28;20044;-79
2023/03/24 04:55:49;;;;;;;8.60;2.33;;;10.50;99.90;;;;;;5014137;28;20044;-80
2023/03/24 04:58:19;;;;;;;9.90;2.58;;;10.40;99.90;;;;;;5031085;28;20056;-80
2023/03/24 05:00:46;;;;;;;11.15;3.03;;;10.40;99.90;;;;;;5012636;28;20669;-80
2023/03/24 05:03:14;;;;;;;8.93;3.20;;;10.30;99.90;;;;;;5010337;28;20078;-79
2023/03/24 05:05:41;;;;;;;13.20;3.58;;;10.30;99.90;;;;;;5031327;28;20057;-79
2023/03/24 05:08:08;;;;;;;10.88;3.28;;;10.30;99.90;;;;;;5015105;28;20097;-79
2023/03/24 05:10:34;;;;;;;9.43;3.10;;;10.30;99.90;;;;;;5015707;28;20079;-78
2023/03/24 05:13:07;;;;;;;10.82;3.15;;;10.30;99.90;;;;;;4997276;28;20411;-77
2023/03/24 05:15:33;;;;;;;12.57;3.50;;;10.30;99.90;;;;;;5014684;28;20560;-79
2023/03/24 05:18:00;;;;;;;13.90;3.47;;;10.30;99.90;;;;;;5000373;28;20049;-79
2023/03/24 05:20:26;;;;;;;12.25;4.10;;;10.20;99.90;;;;;;5024506;28;20202;-79
2023/03/24 05:22:52;;;;;;;14.57;3.88;;;10.20;99.90;;;;;;5012552;28;20033;-79
2023/03/24 05:25:19;;;;;;;14.00;4.22;;;10.30;99.90;;;;;;5032077;28;20179;-79
2023/03/24 05:27:46;;;;;;;12.93;3.85;;;10.20;99.90;;;;;;5031656;28;20052;-78
2023/03/24 05:30:13;;;;;;;13.20;3.78;;;10.20;99.90;;;;;;5012594;28;20049;-78
2023/03/24 05:32:39;;;;;;;11.13;3.70;;;10.20;99.90;;;;;;5015218;28;20051;-77
2023/03/24 05:35:05;;;;;;;15.25;3.60;;;10.20;99.90;;;;;;5031070;28;20056;-78
2023/03/24 05:37:30;;;;;;;13.98;3.72;;;10.10;99.90;;;;;;5031646;28;20055;-77
2023/03/24 05:39:56;;;;;;;14.68;4.30;;;10.10;99.90;;;;;;5014543;28;20040;-79
2023/03/24 05:42:25;;;;;;;11.63;4.00;;;10.10;99.90;;;;;;5028839;28;20518;-71
2023/03/24 05:44:51;;;;;;;13.23;3.53;;;10.00;99.90;;;;;;4992894;28;20102;-71
2023/03/24 05:47:19;;;;;;;12.88;3.67;;;10.00;99.90;;;;;;5003654;28;20082;-71
2023/03/24 05:49:47;;;;;;;13.38;4.03;;;10.00;99.90;;;;;;5030964;28;20123;-72
2023/03/24 05:52:16;;;;;;;13.55;3.88;;;9.90;99.90;;;;;;5015399;28;20032;-71
2023/03/24 05:54:42;;;;;;;11.48;3.95;;;9.90;99.90;;;;;;4991004;28;20049;-78
2023/03/24 05:57:14;;;;;;;12.63;3.30;;;9.90;99.90;;;;;;5025273;28;20044;-78
2023/03/24 05:59:41;;;;;;;16.60;4.10;;;9.80;99.90;;;;;;5029675;28;20057;-70
2023/03/24 06:02:07;;;;;;;13.27;3.28;;;9.70;99.90;;;;;;5031560;28;20064;-71
2023/03/24 06:04:33;;;;;;;11.65;3.50;;;9.70;99.90;;;;;;5028801;28;20422;-71
2023/03/24 06:07:02;;;;;;;14.10;3.55;;;9.70;99.90;;;;;;5015745;28;20063;-71
2023/03/24 06:09:34;;;;;;;12.93;3.90;;;9.60;99.90;;;;;;5028829;28;20053;-71
2023/03/24 06:12:10;;;;;;;11.38;2.80;;;9.60;99.90;;;;;;5030244;28;20067;-70
2023/03/24 06:14:35;;;;;;;11.63;2.78;;;9.60;99.90;;;;;;5030788;28;20036;-70
2023/03/24 06:17:01;;;;;;;10.82;3.22;;;9.60;99.90;;;;;;5029217;28;20498;-71
2023/03/24 06:19:31;;;;;;;13.50;3.15;;;9.70;99.90;;;;;;5014457;28;20036;-71
2023/03/24 06:21:59;;;;;;;9.63;3.03;;;9.70;99.90;;;;;;5021911;28;20402;-71
2023/03/24 06:24:26;;;;;;;9.88;2.67;;;9.70;99.90;;;;;;5001075;28;20044;-72
2023/03/24 06:26:52;;;;;;;15.27;3.30;;;9.80;99.90;;;;;;5014117;28;20626;-71
2023/03/24 06:29:17;;;;;;;10.38;2.58;;;9.80;99.90;;;;;;5014436;28;20052;-71
2023/03/24 06:31:45;;;;;;;15.23;3.28;;;9.80;99.90;;;;;;5017430;28;20053;-71
2023/03/24 06:34:11;;;;;;;10.65;2.85;;;9.80;99.90;;;;;;5026262;28;20128;-71
2023/03/24 06:36:36;;;;;;;11.43;3.15;;;9.90;99.90;;;;;;5026139;28;20125;-69
2023/03/24 06:39:06;;;;;;;14.73;3.20;;;9.90;99.90;;;;;;5018359;28;20063;-70
2023/03/24 06:41:33;;;;;;;13.52;3.35;;;9.90;99.90;;;;;;5026036;28;20921;-70
2023/03/24 06:44:05;;;;;;;11.45;3.58;;;10.00;99.90;;;;;;4991043;28;20553;-71
2023/03/24 06:46:30;;;;;;;13.02;3.60;;;10.00;99.90;;;;;;5023690;28;20049;-70
2023/03/24 06:48:56;;;;;;;14.57;2.90;;;10.00;99.90;;;;;;5022425;28;20062;-70
2023/03/24 06:51:27;;;;;;;13.25;2.88;;;10.00;99.90;;;;;;5010547;28;20492;-70
2023/03/24 06:53:56;;;;;;;12.48;3.75;;;10.10;99.90;;;;;;5007497;28;20048;-75
2023/03/24 06:56:22;;;;;;;12.40;3.03;;;10.10;99.90;;;;;;5027392;28;20438;-74
2023/03/24 06:58:48;;;;;;;12.38;2.92;;;10.20;99.90;;;;;;5016463;28;20048;-74
2023/03/24 07:01:14;;;;;;;13.48;3.78;;;10.10;99.90;;;;;;5016914;28;20048;-74
2023/03/24 07:03:43;;;;;;;13.43;3.13;;;10.10;99.90;;;;;;5029538;28;20048;-74
2023/03/24 07:06:09;;;;;;;13.27;3.35;;;10.20;99.90;;;;;;5006318;28;20053;-74
2023/03/24 07:08:39;;;;;;;14.30;3.78;;;10.20;99.90;;;;;;5027604;28;20392;-74
2023/03/24 07:11:07;;;;;;;13.48;3.13;;;10.20;99.90;;;;;;4990715;28;20208;-75
2023/03/24 07:13:33;;;;;;;12.48;3.75;;;10.30;99.90;;;;;;5009268;28;20249;-74
2023/03/24 07:16:02;;;;;;;13.85;3.85;;;10.30;99.90;;;;;;5014510;28;20048;-74
2023/03/24 07:18:28;;;;;;;15.32;3.25;;;10.20;99.90;;;;;;5000643;28;20044;-75
2023/03/24 07:20:57;;;;;;;13.25;3.25;;;10.30;99.90;;;;;;4992975;28;20202;-75
2023/03/24 07:23:24;;;;;;;16.85;3.53;;;10.30;99.90;;;;;;5024323;28;20371;-75
2023/03/24 07:25:51;;;;;;;17.08;3.28;;;10.40;99.90;;;;;;4992454;28;20048;-75
2023/03/24 07:28:16;;;;;;;15.32;3.72;;;10.50;99.90;;;;;;4995546;28;20037;-75
2023/03/24 07:30:42;;;;;;;12.73;3.78;;;10.50;99.90;;;;;;5010135;28;20041;-75
2023/03/24 07:33:14;;;;;;;15.32;3.47;;;10.50;99.90;;;;;;5027742;28;20037;-75
2023/03/24 07:35:41;;;;;;;15.10;3.95;;;10.50;99.90;;;;;;5025975;28;20056;-74
2023/03/24 07:38:07;;;;;;;17.00;3.60;;;10.50;99.90;;;;;;5024563;28;20067;-75
2023/03/24 07:40:39;;;;;;;14.68;3.95;;;10.50;99.90;;;;;;5013629;28;20040;-75
2023/03/24 07:43:08;;;;;;;12.60;3.10;;;10.50;99.90;;;;;;4979347;28;20049;-75
2023/03/24 07:45:34;;;;;;;18.02;3.22;;;10.60;99.90;;;;;;5014341;28;20037;-75
2023/03/24 07:48:03;;;;;;;14.88;3.63;;;10.60;99.90;;;;;;5022430;28;20072;-75
2023/03/24 07:50:32;;;;;;;12.50;3.28;;;10.70;99.90;;;;;;4997839;28;20048;-75
2023/03/24 07:53:01;;;;;;;16.58;3.83;;;10.80;99.90;;;;;;5006932;28;20059;-74
2023/03/24 07:55:26;;;;;;;18.33;3.45;;;10.80;99.90;;;;;;5012367;28;20057;-74
2023/03/24 07:57:52;;;;;;;18.52;3.90;;;10.80;99.90;;;;;;5024585;28;20049;-77
2023/03/24 08:00:19;;;;;;;16.48;3.30;;;10.80;99.90;;;;;;5023285;28;20048;-75
2023/03/24 08:02:46;;;;;;;16.70;3.67;;;10.80;99.90;;;;;;5024686;28;20058;-75
2023/03/24 08:05:13;;;;;;;15.07;3.65;;;10.80;99.90;;;;;;5009280;28;20073;-74
2023/03/24 08:07:41;;;;;;;17.17;4.07;;;10.90;99.90;;;;;;5029581;28;20049;-74
2023/03/24 08:10:12;;;;;;;16.52;3.85;;;10.90;99.90;;;;;;5044549;28;20048;-74
2023/03/24 08:12:39;;;;;;;14.38;3.20;;;10.90;99.90;;;;;;5029737;28;20047;-75
2023/03/24 08:15:06;;;;;;;18.23;3.75;;;10.90;99.90;;;;;;5008485;28;21159;-73
2023/03/24 08:17:35;;;;;;;16.98;3.75;;;10.90;99.90;;;;;;5027404;28;20118;-73
2023/03/24 08:20:13;;;;;;;18.95;4.65;;;10.90;99.90;;;;;;5026987;28;20052;-73
2023/03/24 08:22:41;;;;;;;16.40;3.92;;;10.90;99.90;;;;;;5007430;28;20048;-73
2023/03/24 08:25:08;;;;;;;20.38;3.88;;;10.90;99.90;;;;;;5025254;28;20052;-73
2023/03/24 08:27:36;;;;;;;19.38;3.88;;;10.90;99.90;;;;;;4993505;28;20056;-74
2023/03/24 08:30:04;;;;;;;19.08;4.20;;;10.90;99.90;;;;;;5025328;28;20052;-73
2023/03/24 08:32:30;;;;;;;18.23;3.95;;;10.90;99.90;;;;;;5024783;28;20071;-73
2023/03/24 08:34:57;;;;;;;19.85;3.80;;;10.90;99.90;;;;;;4995705;28;20045;-73
2023/03/24 08:37:22;;;;;;;18.25;4.38;;;10.90;99.90;;;;;;4994341;28;20047;-72
2023/03/24 08:39:49;;;;;;;16.40;4.13;;;10.80;99.90;;;;;;5016154;28;20040;-73
2023/03/24 08:42:14;;;;;;;19.58;4.63;;;10.80;99.90;;;;;;5028468;28;20123;-73
2023/03/24 08:44:46;;;;;;;17.33;4.03;;;10.90;99.90;;;;;;5002343;28;20291;-73
2023/03/24 08:47:14;;;;;;;19.52;4.18;;;10.90;99.90;;;;;;5024093;28;20074;-72
2023/03/24 08:49:40;;;;;;;17.42;3.97;;;10.90;99.90;;;;;;5015089;28;20131;-73
2023/03/24 08:52:07;;;;;;;18.88;4.10;;;10.80;99.90;;;;;;4995309;28;20369;-74
2023/03/24 08:54:36;;;;;;;14.02;3.50;;;10.80;99.90;;;;;;5007631;28;20041;-73
2023/03/24 08:57:02;;;;;;;18.48;4.55;;;10.70;99.90;;;;;;5027925;28;20127;-73
2023/03/24 08:59:27;;;;;;;18.48;4.20;;;10.70;99.90;;;;;;4976870;28;20411;-74
2023/03/24 09:01:53;;;;;;;17.92;3.80;;;10.70;99.90;;;;;;5025172;28;20429;-73
2023/03/24 09:04:25;;;;;;;14.40;4.07;;;10.90;99.90;;;;;;5016919;28;20063;-73
2023/03/24 09:06:58;;;;;;;18.95;3.70;;;11.20;99.90;;;;;;5028173;28;20059;-72
2023/03/24 09:09:27;;;;;;;16.45;4.13;;;11.50;99.90;;;;;;4999137;28;20068;-76
2023/03/24 09:11:53;;;;;;;17.55;3.83;;;11.70;99.90;;;;;;4992165;28;20314;-72
2023/03/24 09:14:21;;;;;;;15.30;3.53;;;11.90;99.90;;;;;;5016975;28;20040;-75
2023/03/24 09:16:49;;;;;;;17.80;4.10;;;12.00;99.90;;;;;;5025489;28;20053;-73
2023/03/24 09:19:18;;;;;;;16.90;3.50;;;12.20;99.90;;;;;;4994485;28;20045;-74
2023/03/24 09:21:45;;;;;;;13.95;3.10;;;12.20;99.90;;;;;;5010362;28;20094;-74
2023/03/24 09:24:12;;;;;;;15.73;3.63;;;12.30;99.90;;;;;;5023196;28;20084;-73
2023/03/24 09:26:38;;;;;;;21.67;5.20;;;12.30;99.90;;;;;;5010238;28;20052;-73
2023/03/24 09:29:04;;;;;;;19.55;3.80;;;12.50;99.90;;;;;;5025726;28;20048;-74
2023/03/24 09:31:33;;;;;;;17.50;3.67;;;12.70;99.90;;;;;;5027248;28;20051;-74
2023/03/24 09:34:02;;;;;;;14.60;3.97;;;12.80;99.90;;;;;;5027776;28;20044;-73
2023/03/24 09:36:28;;;;;;;17.67;3.60;;;12.80;99.90;;;;;;5009709;28;20185;-73
2023/03/24 09:38:54;;;;;;;13.73;3.05;;;12.80;99.90;;;;;;5043927;28;20567;-73
2023/03/24 09:41:28;;;;;;;17.67;3.85;;;12.70;99.90;;;;;;5020422;28;20282;-73
2023/03/24 09:44:10;;;;;;;14.20;3.90;;;12.50;99.90;;;;;;5024039;28;20037;-73
2023/03/24 09:46:43;;;;;;;16.42;4.05;;;12.20;99.90;;;;;;5007061;28;20383;-74
2023/03/24 09:49:16;;;;;;;15.38;3.85;;;12.00;99.90;;;;;;5021739;28;20318;-73
2023/03/24 09:51:44;;;;;;;18.63;3.83;;;11.80;99.90;;;;;;5009516;28;20044;-74
2023/03/24 09:54:12;;;;;;;16.58;3.75;;;11.70;99.90;;;;;;5025217;28;20282;-72
2023/03/24 09:56:42;;;;;;;17.35;4.40;;;11.80;99.90;;;;;;5037599;28;20056;-73
2023/03/24 09:59:31;;;;;;;14.65;3.90;;;11.90;99.90;;;;;;4999736;28;20052;-73
2023/03/24 10:01:57;;;;;;;13.82;3.30;;;12.20;99.90;;;;;;5024110;28;20044;-72
2023/03/24 10:04:26;;;;;;;15.77;4.07;;;12.40;99.90;;;;;;4995641;28;20885;-73
2023/03/24 10:07:05;;;;;;;16.95;4.22;;;12.50;99.90;;;;;;5014214;28;20499;-73
2023/03/24 10:09:34;;;;;;;17.65;4.78;;;12.60;99.90;;;;;;5001097;28;20515;-73
2023/03/24 10:12:08;;;;;;;14.90;3.53;;;12.70;99.90;;;;;;5008503;28;20053;-74
2023/03/24 10:14:56;;;;;;;18.00;4.57;;;12.80;99.90;;;;;;5007546;28;20052;-73
2023/03/24 10:17:30;;;;;;;19.85;4.05;;;12.90;99.90;;;;;;5005982;28;20056;-74
2023/03/24 10:20:14;;;;;;;18.50;4.22;;;12.90;99.90;;;;;;5003421;28;20122;-73
2023/03/24 10:22:52;;;;;;;14.75;3.47;;;13.10;99.90;;;;;;5007495;28;20563;-73
2023/03/24 10:25:24;;;;;;;18.88;4.65;;;13.30;99.90;;;;;;5003610;28;20045;-74
2023/03/24 10:27:52;;;;;;;17.98;4.20;;;13.50;99.90;;;;;;5025626;28;20406;-73
2023/03/24 10:30:24;;;;;;;15.25;3.30;;;13.50;99.90;;;;;;5003711;28;20459;-73
2023/03/24 10:32:53;;;;;;;12.98;2.97;;;13.50;99.90;;;;;;4992887;28;20045;-73
2023/03/24 10:35:45;;;;;;;12.45;2.83;;;13.60;99.90;;;;;;5005630;28;20072;-73
2023/03/24 10:38:17;;;;;;;14.10;3.05;;;13.60;99.90;;;;;;5006718;28;20060;-73
2023/03/24 10:40:46;;;;;;;18.98;3.15;;;13.50;99.90;;;;;;5008506;28;20416;-73
2023/03/24 10:43:13;;;;;;;12.38;2.83;;;13.30;99.90;;;;;;5007447;28;20049;-73
2023/03/24 10:45:45;;;;;;;15.73;3.33;;;13.10;99.90;;;;;;5007964;28;20087;-75
2023/03/24 10:48:13;;;;;;;14.48;3.75;;;13.00;99.90;;;;;;5005278;28;20572;-75
2023/03/24 10:50:44;;;;;;;13.57;3.50;;;12.90;99.90;;;;;;5007786;28;21392;-73
2023/03/24 10:53:20;;;;;;;16.63;3.85;;;12.90;99.90;;;;;;5023068;28;20048;-72
2023/03/24 10:55:47;;;;;;;10.80;2.83;;;12.90;99.90;;;;;;5007523;28;20052;-72
2023/03/24 10:58:25;;;;;;;14.43;3.42;;;12.80;99.90;;;;;;5022214;28;20084;-73
2023/03/24 11:00:51;;;;;;;14.45;3.20;;;12.90;99.90;;;;;;4990221;28;20144;-72
2023/03/24 11:03:38;;;;;;;15.27;3.38;;;13.00;99.90;;;;;;4991111;28;20049;-72
2023/03/24 11:06:04;;;;;;;15.82;3.40;;;13.10;99.90;;;;;;5004053;28;20057;-72
2023/03/24 11:08:38;;;;;;;18.75;3.70;;;13.30;99.90;;;;;;5023917;28;20602;-72
2023/03/24 11:11:33;;;;;;;12.60;3.45;;;13.40;99.90;;;;;;5025606;28;20044;-72
2023/03/24 11:14:08;;;;;;;12.15;2.85;;;13.30;99.90;;;;;;5025982;28;20731;-72
2023/03/24 11:16:42;;;;;;;14.13;3.47;;;13.20;99.90;;;;;;5019907;28;20102;-73
2023/03/24 11:19:20;;;;;;;9.88;2.63;;;13.20;99.90;;;;;;5007368;28;20063;-73
2023/03/24 11:21:50;;;;;;;15.57;3.15;;;13.40;97.80;;;;;;5038382;28;20383;-73
2023/03/24 11:24:18;;;;;;;10.70;2.75;;;13.50;97.00;;;;;;5020067;28;20071;-72
2023/03/24 11:26:57;;;;;;;11.82;2.65;;;13.60;94.80;;;;;;5009916;28;20154;-73
2023/03/24 11:29:26;;;;;;;10.02;2.70;;;13.70;97.00;;;;;;5008853;28;20552;-73
2023/03/24 11:32:02;;;;;;;10.82;2.28;;;13.80;95.80;;;;;;5018829;28;20060;-73
2023/03/24 11:34:40;;;;;;;12.05;2.65;;;13.90;94.60;;;;;;5027228;28;20127;-72
2023/03/24 11:37:15;;;;;;;12.88;2.60;;;13.90;95.80;;;;;;5010965;28;20163;-73
2023/03/24 11:39:43;;;;;;;12.32;2.67;;;13.90;95.70;;;;;;5022269;28;20087;-73
2023/03/24 11:42:16;;;;;;;12.77;2.83;;;14.00;96.70;;;;;;5012614;28;20040;-73
2023/03/24 11:44:50;;;;;;;13.55;2.92;;;14.10;95.80;;;;;;5012705;28;20167;-73
2023/03/24 11:47:31;;;;;;;9.57;2.55;;;14.20;96.60;;;;;;5014305;28;20093;-74
2023/03/24 11:49:57;;;;;;;9.73;1.92;;;14.10;95.80;;;;;;5022774;28;20045;-73
2023/03/24 11:52:38;;;;;;;14.95;3.65;;;14.00;96.50;;;;;;5029231;28;20049;-73
2023/03/24 11:55:16;;;;;;;13.10;2.80;;;14.00;95.50;;;;;;5027889;28;20049;-73
2023/03/24 11:57:42;;;;;;;13.07;2.83;;;14.00;99.00;;;;;;5022987;28;20052;-73
2023/03/24 12:00:34;;;;;;;15.02;3.58;;;14.00;97.50;;;;;;5025720;28;20040;-72
2023/03/24 12:03:18;;;;;;;8.68;2.38;;;13.90;98.10;;;;;;4994707;28;20049;-72
2023/03/24 12:05:57;;;;;;;12.25;2.80;;;13.70;98.70;;;;;;5009952;28;20049;-72
2023/03/24 12:08:39;;;;;;;10.25;2.40;;;13.50;99.00;;;;;;5010907;28;20514;-72
2023/03/24 12:11:33;;;;;;;11.25;2.70;;;13.50;99.90;;;;;;4993765;28;21282;-73
2023/03/24 12:14:03;;;;;;;11.98;2.92;;;13.70;99.10;;;;;;5026359;28;20041;-72
2023/03/24 12:16:57;;;;;;;11.23;2.60;;;13.90;99.90;;;;;;5024507;28;20127;-73
2023/03/24 12:19:50;;;;;;;12.25;2.30;;;14.00;98.60;;;;;;5023197;28;20064;-73
2023/03/24 12:22:42;;;;;;;14.20;2.90;;;14.10;98.60;;;;;;4992191;28;20139;-72
2023/03/24 12:25:24;;;;;;;13.98;3.47;;;14.20;98.30;;;;;;5010276;28;20048;-72
2023/03/24 12:27:52;;;;;;;9.88;2.45;;;14.30;96.50;;;;;;5009216;28;20053;-72
2023/03/24 12:30:22;;;;;;;10.77;2.20;;;14.20;94.00;;;;;;4992849;28;20052;-74
2023/03/24 12:33:04;;;;;;;9.98;2.63;;;14.10;95.30;;;;;;5011333;28;20041;-72
2023/03/24 12:36:00;;;;;;;14.15;2.55;;;14.10;94.30;;;;;;5010958;28;20048;-74
2023/03/24 12:38:57;;;;;;;9.40;2.10;;;14.20;93.40;;;;;;4975899;28;20119;-73
2023/03/24 12:41:40;;;;;;;8.27;1.80;;;14.30;93.00;;;;;;5026498;28;21073;-73
2023/03/24 12:45:00;;;;;;;9.50;1.98;;;14.30;90.50;;;;;;5007269;28;20425;-74
2023/03/24 12:47:56;;;;;;;11.82;3.13;;;14.30;87.20;;;;;;5000595;28;20918;-74
2023/03/24 12:50:46;;;;;;;13.70;2.70;;;14.30;91.50;;;;;;5009929;28;20049;-73
2023/03/24 12:53:31;;;;;;;;;;;14.30;91.40;;;;;;5010227;28;20407;-73
2023/03/24 12:56:05;;;;;;;9.57;2.17;;;14.30;92.50;;;;;;5011000;28;20363;-74
2023/03/24 12:58:43;;;;;;;13.52;3.38;;;14.30;90.20;;;;;;4993069;28;20049;-74
2023/03/24 13:01:31;;;;;;;11.07;2.67;;;14.20;90.60;;;;;;5027532;28;20053;-73
2023/03/24 13:04:09;;;;;;;14.07;3.53;;;14.30;92.30;;;;;;5025825;28;20056;-73
2023/03/24 13:06:41;;;;;;;11.20;3.00;;;14.20;92.50;;;;;;4993235;28;20546;-73
2023/03/24 13:09:18;;;;;;;12.18;2.55;;;14.20;92.90;;;;;;5023337;28;20585;-74